Time;durP1;ratioP1;P1;durP2;ratioP2;P2;SDS_P1;SDS_P2;PMS_P1;PMS_P2;Temp;Humidity;BMP_temperature;BMP_pressure;BME280_temperature;BME280_humidity;BME280_pressure;Samples;Min_cycle;Max_cycle;Signal;HPM_P1;HPM_P2
2023/10/28 00:00:17;;;;;;;9.03;2.97;;;13.50;83.60;;;;;;5046400;28;20457;-82
2023/10/28 00:02:45;;;;;;;9.80;2.60;;;13.40;83.60;;;;;;5062332;28;20861;-80
2023/10/28 00:05:14;;;;;;;9.00;2.30;;;13.40;83.60;;;;;;5057651;28;20465;-80
2023/10/28 00:07:42;;;;;;;8.70;2.80;;;13.40;83.70;;;;;;5058700;28;21354;-81
2023/10/28 00:10:10;;;;;;;6.67;2.23;;;13.40;83.70;;;;;;5063697;28;20974;-80
2023/10/28 00:12:38;;;;;;;6.47;2.47;;;13.40;83.70;;;;;;5056922;28;20498;-81
2023/10/28 00:15:08;;;;;;;9.40;2.27;;;13.40;83.80;;;;;;5059322;28;20458;-79
2023/10/28 00:17:38;;;;;;;7.30;2.63;;;13.40;83.70;;;;;;5060940;28;20445;-80
2023/10/28 00:20:08;;;;;;;8.50;2.40;;;13.40;83.70;;;;;;5060380;28;20566;-82
2023/10/28 00:22:37;;;;;;;8.23;2.13;;;13.40;83.80;;;;;;5070580;28;21232;-81
2023/10/28 00:25:06;;;;;;;8.43;2.47;;;13.30;83.80;;;;;;5065373;28;20445;-81
2023/10/28 00:27:36;;;;;;;5.60;2.23;;;13.30;83.80;;;;;;5066385;28;20462;-79
2023/10/28 00:30:07;;;;;;;7.33;2.10;;;13.30;83.90;;;;;;5067780;28;21141;-81
2023/10/28 00:32:38;;;;;;;6.97;2.33;;;13.30;83.90;;;;;;5046115;28;20528;-80
2023/10/28 00:35:07;;;;;;;6.20;2.10;;;13.30;83.90;;;;;;5070696;28;20460;-81
2023/10/28 00:37:35;;;;;;;8.43;2.20;;;13.30;83.90;;;;;;5068894;28;20465;-80
2023/10/28 00:40:05;;;;;;;5.40;2.20;;;13.30;83.90;;;;;;5048586;28;20461;-81
2023/10/28 00:42:35;;;;;;;6.17;2.63;;;13.30;84.00;;;;;;5061269;28;20736;-81
2023/10/28 00:45:04;;;;;;;6.20;2.60;;;13.30;84.00;;;;;;5049406;28;20476;-81
2023/10/28 00:47:33;;;;;;;7.83;2.53;;;13.30;84.00;;;;;;5068710;28;20454;-79
2023/10/28 00:50:09;;;;;;;5.77;2.50;;;13.20;84.00;;;;;;5046026;28;20542;-80
2023/10/28 00:52:38;;;;;;;5.30;2.13;;;13.20;84.10;;;;;;5066205;28;20476;-78
2023/10/28 00:55:09;;;;;;;7.40;2.20;;;13.20;84.10;;;;;;5048150;28;20468;-83
2023/10/28 00:57:38;;;;;;;7.50;2.40;;;13.20;84.10;;;;;;5051573;28;21054;-83
2023/10/28 01:00:08;;;;;;;6.07;2.10;;;13.20;84.10;;;;;;5047791;28;20454;-80
2023/10/28 01:02:42;;;;;;;6.10;2.50;;;13.20;84.20;;;;;;5052308;28;21169;-78
2023/10/28 01:05:16;;;;;;;5.90;2.07;;;13.20;84.20;;;;;;5073133;28;20479;-80
2023/10/28 01:07:46;;;;;;;6.33;2.17;;;13.20;84.30;;;;;;5056854;28;20469;-81
2023/10/28 01:10:26;;;;;;;6.33;2.40;;;13.20;84.30;;;;;;5068510;28;20479;-79
2023/10/28 01:12:54;;;;;;;5.10;2.03;;;13.20;84.30;;;;;;5056531;28;21252;-79
2023/10/28 01:15:23;;;;;;;5.77;1.83;;;13.20;84.30;;;;;;5054129;28;20482;-80
2023/10/28 01:17:51;;;;;;;5.63;2.00;;;13.20;84.30;;;;;;5053767;28;20450;-80
2023/10/28 01:20:21;;;;;;;5.90;1.80;;;13.20;84.30;;;;;;5056889;28;20499;-81
2023/10/28 01:22:51;;;;;;;6.43;1.90;;;13.20;84.40;;;;;;5076330;28;20976;-79
2023/10/28 01:25:20;;;;;;;5.43;1.50;;;13.20;84.40;;;;;;5076121;28;20513;-81
2023/10/28 01:27:49;;;;;;;4.70;1.70;;;13.20;84.40;;;;;;5046389;28;20475;-80
2023/10/28 01:30:17;;;;;;;4.37;1.30;;;13.20;84.40;;;;;;5058160;28;20514;-80
2023/10/28 01:32:47;;;;;;;5.03;1.50;;;13.20;84.40;;;;;;5056239;28;20512;-80
2023/10/28 01:35:15;;;;;;;4.67;1.63;;;13.20;84.40;;;;;;5049087;28;20458;-80
2023/10/28 01:37:44;;;;;;;5.57;1.53;;;13.20;84.40;;;;;;5070406;28;20812;-80
2023/10/28 01:40:14;;;;;;;5.33;1.57;;;13.20;84.40;;;;;;5074076;28;20462;-80
2023/10/28 01:42:45;;;;;;;4.37;1.40;;;13.20;84.50;;;;;;5049882;28;20461;-79
2023/10/28 01:45:16;;;;;;;4.30;1.47;;;13.20;84.50;;;;;;5051928;28;20461;-80
2023/10/28 01:47:44;;;;;;;8.80;1.10;;;13.20;84.50;;;;;;5060742;28;20470;-79
2023/10/28 01:50:13;;;;;;;4.47;1.30;;;13.20;84.50;;;;;;5049185;28;20492;-80
2023/10/28 01:52:44;;;;;;;3.17;0.80;;;13.20;84.40;;;;;;5053362;28;20485;-81
2023/10/28 01:55:14;;;;;;;3.90;1.30;;;13.20;84.40;;;;;;5074195;28;20974;-80
2023/10/28 01:57:43;;;;;;;3.70;1.07;;;13.10;84.50;;;;;;5053974;28;20841;-80
2023/10/28 02:00:16;;;;;;;3.47;1.10;;;13.20;84.50;;;;;;5048344;28;20449;-81
2023/10/28 02:02:45;;;;;;;3.53;0.80;;;13.10;84.50;;;;;;5064815;28;20472;-79
2023/10/28 02:05:15;;;;;;;4.37;0.83;;;13.10;84.50;;;;;;5062752;28;20462;-81
2023/10/28 02:07:44;;;;;;;7.63;0.80;;;13.10;84.60;;;;;;5055965;28;20468;-80
2023/10/28 02:10:13;;;;;;;3.80;0.97;;;13.10;84.50;;;;;;5051179;28;20474;-78
2023/10/28 02:12:41;;;;;;;2.90;0.60;;;13.10;84.50;;;;;;5076697;28;20480;-80
2023/10/28 02:15:10;;;;;;;5.43;0.73;;;13.10;84.60;;;;;;5070876;28;20492;-80
2023/10/28 02:17:39;;;;;;;2.80;0.60;;;13.10;84.50;;;;;;5071775;28;20461;-79
2023/10/28 02:20:10;;;;;;;3.53;0.60;;;13.10;84.60;;;;;;5054183;28;20466;-80
2023/10/28 02:22:38;;;;;;;3.67;0.70;;;13.00;84.70;;;;;;5063428;28;20467;-78
2023/10/28 02:25:08;;;;;;;5.67;1.23;;;13.00;84.80;;;;;;5064898;28;20461;-79
2023/10/28 02:27:38;;;;;;;3.93;0.60;;;13.00;84.80;;;;;;5067381;28;20537;-79
2023/10/28 02:30:07;;;;;;;3.00;0.50;;;13.00;84.90;;;;;;5051090;28;20564;-80
2023/10/28 02:32:35;;;;;;;3.10;0.70;;;13.00;84.90;;;;;;5069352;28;20822;-79
2023/10/28 02:35:04;;;;;;;3.20;0.60;;;13.00;84.90;;;;;;5070043;28;20454;-81
2023/10/28 02:37:32;;;;;;;3.47;0.60;;;13.00;84.90;;;;;;5069266;28;20488;-81
2023/10/28 02:40:00;;;;;;;3.90;0.50;;;13.00;84.90;;;;;;5070050;28;20457;-79
2023/10/28 02:42:28;;;;;;;3.67;0.63;;;13.00;84.90;;;;;;5065733;28;20465;-79
2023/10/28 02:44:57;;;;;;;3.70;0.60;;;13.00;85.00;;;;;;5068694;28;20544;-79
2023/10/28 02:47:26;;;;;;;3.00;0.50;;;12.90;85.00;;;;;;5061638;28;20481;-80
2023/10/28 02:49:59;;;;;;;3.07;0.60;;;12.90;85.00;;;;;;5063617;28;20492;-79
2023/10/28 02:52:27;;;;;;;3.20;0.50;;;13.00;85.00;;;;;;5063757;28;20477;-79
2023/10/28 02:54:55;;;;;;;4.07;0.80;;;12.90;85.00;;;;;;5067703;28;20997;-81
2023/10/28 02:57:23;;;;;;;2.90;0.60;;;12.90;84.90;;;;;;5064665;28;20564;-80
2023/10/28 02:59:51;;;;;;;2.77;0.47;;;12.90;85.00;;;;;;5071084;28;20515;-79
2023/10/28 03:02:22;;;;;;;2.93;0.50;;;12.90;85.00;;;;;;5068713;28;20488;-80
2023/10/28 03:04:50;;;;;;;3.07;0.70;;;12.90;85.00;;;;;;5070962;28;20468;-79
2023/10/28 03:07:19;;;;;;;2.90;0.43;;;12.80;84.90;;;;;;5072817;28;20967;-79
2023/10/28 03:09:47;;;;;;;3.00;0.53;;;12.80;85.00;;;;;;5073076;28;20460;-80
2023/10/28 03:12:15;;;;;;;2.80;0.50;;;12.80;84.90;;;;;;5085783;28;20484;-81
2023/10/28 03:14:45;;;;;;;2.90;0.50;;;12.80;84.90;;;;;;5072818;28;20970;-80
2023/10/28 03:17:13;;;;;;;3.03;0.50;;;12.80;84.90;;;;;;5059300;28;20549;-79
2023/10/28 03:19:43;;;;;;;3.00;0.57;;;12.80;84.80;;;;;;5073687;28;20445;-80
2023/10/28 03:22:11;;;;;;;3.07;0.50;;;12.80;84.80;;;;;;5072630;28;20454;-80
2023/10/28 03:24:39;;;;;;;5.80;0.60;;;12.80;84.70;;;;;;5065609;28;20458;-79
2023/10/28 03:27:07;;;;;;;4.17;0.70;;;12.80;84.70;;;;;;5071109;28;20877;-79
2023/10/28 03:29:35;;;;;;;4.00;0.87;;;12.80;84.60;;;;;;5072935;28;20496;-80
2023/10/28 03:32:04;;;;;;;3.60;0.60;;;12.80;84.60;;;;;;5070581;28;20466;-80
2023/10/28 03:34:32;;;;;;;4.73;0.70;;;12.80;84.40;;;;;;5071275;28;20481;-80
2023/10/28 03:37:02;;;;;;;4.47;1.10;;;12.80;84.50;;;;;;5069191;28;20892;-80
2023/10/28 03:39:31;;;;;;;3.73;0.60;;;12.80;84.30;;;;;;5058829;28;20496;-79
2023/10/28 03:41:59;;;;;;;4.13;0.80;;;12.70;84.20;;;;;;5071325;28;20449;-79
2023/10/28 03:44:28;;;;;;;3.40;0.70;;;12.70;84.30;;;;;;5066234;28;21159;-80
2023/10/28 03:46:57;;;;;;;5.87;0.97;;;12.70;84.20;;;;;;5076496;28;20476;-80
2023/10/28 03:49:25;;;;;;;4.63;0.90;;;12.70;84.00;;;;;;5069195;28;20519;-79
2023/10/28 03:51:54;;;;;;;4.70;1.10;;;12.60;84.00;;;;;;5069572;28;21042;-80
2023/10/28 03:54:23;;;;;;;6.57;0.90;;;12.60;84.00;;;;;;5072708;28;20464;-81
2023/10/28 03:56:51;;;;;;;3.43;1.00;;;12.60;84.00;;;;;;5068153;28;20463;-79
2023/10/28 03:59:20;;;;;;;6.87;1.23;;;12.60;83.90;;;;;;5070854;28;20496;-79
2023/10/28 04:01:47;;;;;;;4.53;1.00;;;12.60;83.90;;;;;;5075171;28;20802;-80
2023/10/28 04:04:16;;;;;;;5.70;1.00;;;12.60;83.90;;;;;;5072266;28;20446;-79
2023/10/28 04:06:45;;;;;;;3.90;0.80;;;12.60;83.90;;;;;;5077140;28;20464;-79
2023/10/28 04:09:14;;;;;;;4.20;1.03;;;12.60;83.80;;;;;;5076056;28;20449;-81
2023/10/28 04:11:44;;;;;;;3.83;0.80;;;12.60;83.80;;;;;;5079942;28;20464;-81
2023/10/28 04:14:13;;;;;;;3.50;0.90;;;12.70;83.80;;;;;;5072176;28;20540;-79
2023/10/28 04:16:41;;;;;;;4.77;1.00;;;12.70;83.70;;;;;;5077185;28;20533;-80
2023/10/28 04:19:09;;;;;;;5.67;1.10;;;12.60;83.60;;;;;;5072746;28;20480;-81
2023/10/28 04:21:37;;;;;;;3.20;0.77;;;12.60;83.60;;;;;;5075874;28;20502;-80
2023/10/28 04:24:07;;;;;;;6.23;1.50;;;12.60;83.60;;;;;;5073070;28;20449;-78
2023/10/28 04:26:35;;;;;;;4.13;1.03;;;12.60;83.60;;;;;;5078350;28;21104;-80
2023/10/28 04:29:05;;;;;;;5.30;1.20;;;12.70;83.60;;;;;;5064488;28;20462;-81
2023/10/28 04:31:34;;;;;;;6.53;1.30;;;12.60;83.50;;;;;;5062658;28;20477;-79
2023/10/28 04:34:03;;;;;;;4.97;1.40;;;12.70;83.50;;;;;;5063344;28;20459;-80
2023/10/28 04:36:31;;;;;;;6.03;1.20;;;12.60;83.50;;;;;;5066953;28;20832;-81
2023/10/28 04:38:59;;;;;;;6.37;1.33;;;12.70;83.50;;;;;;5066869;28;21365;-80
2023/10/28 04:41:27;;;;;;;4.20;1.30;;;12.60;83.50;;;;;;5064936;28;20480;-79
2023/10/28 04:43:55;;;;;;;3.70;1.23;;;12.70;83.50;;;;;;5064672;28;20475;-80
2023/10/28 04:46:25;;;;;;;5.17;1.60;;;12.70;83.50;;;;;;5069111;28;20465;-80
2023/10/28 04:48:53;;;;;;;7.90;1.90;;;12.70;83.50;;;;;;5079789;28;20494;-80
2023/10/28 04:51:21;;;;;;;6.63;1.30;;;12.70;83.40;;;;;;5065388;28;20477;-79
2023/10/28 04:53:49;;;;;;;6.80;1.73;;;12.70;83.40;;;;;;5064276;28;21368;-81
2023/10/28 04:56:18;;;;;;;6.50;1.80;;;12.70;83.40;;;;;;5067385;28;20872;-79
2023/10/28 04:58:47;;;;;;;9.00;1.60;;;12.70;83.40;;;;;;5065953;28;20462;-81
2023/10/28 05:01:17;;;;;;;6.63;1.60;;;12.70;83.40;;;;;;5059591;28;20473;-80
2023/10/28 05:03:46;;;;;;;4.17;1.20;;;12.70;83.50;;;;;;5051279;28;20503;-79
2023/10/28 05:06:15;;;;;;;6.17;1.27;;;12.70;83.40;;;;;;5063904;28;20935;-80
2023/10/28 05:08:43;;;;;;;5.77;1.70;;;12.70;83.40;;;;;;5045939;28;20982;-81
2023/10/28 05:11:16;;;;;;;6.97;1.47;;;12.70;83.50;;;;;;5066085;28;21025;-80
2023/10/28 05:13:44;;;;;;;6.63;1.37;;;12.70;83.50;;;;;;5050279;28;20453;-80
2023/10/28 05:16:13;;;;;;;8.23;2.10;;;12.70;83.40;;;;;;5066024;28;20463;-78
2023/10/28 05:18:41;;;;;;;5.30;1.90;;;12.70;83.40;;;;;;5068707;28;20503;-80
2023/10/28 05:21:11;;;;;;;4.40;1.67;;;12.80;83.60;;;;;;5048130;28;20582;-80
2023/10/28 05:23:39;;;;;;;10.83;2.07;;;12.80;83.50;;;;;;5066270;28;20670;-80
2023/10/28 05:26:07;;;;;;;5.60;1.93;;;12.80;83.50;;;;;;5066472;28;20537;-80
2023/10/28 05:28:35;;;;;;;5.03;2.00;;;12.80;83.60;;;;;;5052351;28;20477;-79
2023/10/28 05:31:06;;;;;;;6.97;2.27;;;12.80;83.60;;;;;;5069515;28;20527;-80
2023/10/28 05:33:34;;;;;;;5.13;1.97;;;12.80;83.60;;;;;;5070424;28;20587;-81
2023/10/28 05:36:03;;;;;;;6.70;2.00;;;12.80;83.60;;;;;;5066500;28;20476;-80
2023/10/28 05:38:32;;;;;;;6.07;2.00;;;12.80;83.60;;;;;;5073630;28;20565;-80
2023/10/28 05:41:00;;;;;;;6.90;2.20;;;12.80;83.70;;;;;;5072293;28;20549;-79
2023/10/28 05:43:28;;;;;;;6.47;1.97;;;12.80;83.70;;;;;;5072744;28;20457;-78
2023/10/28 05:45:56;;;;;;;7.10;2.23;;;12.80;83.70;;;;;;5071067;28;20465;-78
2023/10/28 05:48:25;;;;;;;5.30;1.73;;;12.80;83.70;;;;;;5072613;28;21155;-80
2023/10/28 05:50:55;;;;;;;6.17;1.83;;;12.80;83.60;;;;;;5070557;28;20457;-80
2023/10/28 05:53:23;;;;;;;5.80;1.70;;;12.80;83.50;;;;;;5073852;28;20480;-78
2023/10/28 05:55:53;;;;;;;5.13;1.90;;;12.80;83.60;;;;;;5071837;28;20461;-80
2023/10/28 05:58:22;;;;;;;5.83;2.33;;;12.80;83.70;;;;;;5068166;28;20560;-79
2023/10/28 06:00:52;;;;;;;7.57;2.10;;;12.80;83.70;;;;;;5061436;28;21211;-81
2023/10/28 06:03:23;;;;;;;8.00;2.00;;;12.80;83.80;;;;;;5080216;28;20598;-80
2023/10/28 06:05:51;;;;;;;7.23;1.97;;;12.80;83.80;;;;;;5068526;28;20571;-81
2023/10/28 06:08:19;;;;;;;6.23;1.60;;;12.80;83.80;;;;;;5071292;28;20457;-80
2023/10/28 06:10:48;;;;;;;5.87;1.60;;;12.80;83.70;;;;;;5077424;28;20492;-79
2023/10/28 06:13:18;;;;;;;7.97;2.63;;;12.80;83.80;;;;;;5069248;28;20494;-80
2023/10/28 06:15:46;;;;;;;6.97;1.93;;;12.80;83.70;;;;;;5072562;28;20485;-80
2023/10/28 06:18:14;;;;;;;7.53;1.37;;;12.80;83.80;;;;;;5065460;28;20552;-80
2023/10/28 06:20:46;;;;;;;5.43;1.63;;;12.80;83.80;;;;;;5063381;28;20493;-79
2023/10/28 06:23:15;;;;;;;6.07;1.80;;;12.80;83.80;;;;;;5066411;28;20798;-79
2023/10/28 06:25:43;;;;;;;4.30;1.33;;;12.80;83.70;;;;;;5071337;28;20457;-80
2023/10/28 06:28:11;;;;;;;8.00;1.80;;;12.80;83.70;;;;;;5072270;28;20911;-81
2023/10/28 06:30:48;;;;;;;4.70;1.57;;;12.80;83.80;;;;;;5076155;28;20491;-80
2023/10/28 06:33:16;;;;;;;6.73;1.90;;;12.80;83.90;;;;;;5092396;28;20491;-79
2023/10/28 06:35:45;;;;;;;7.40;1.60;;;12.80;83.70;;;;;;5075963;28;20457;-79
2023/10/28 06:38:14;;;;;;;7.67;1.63;;;12.90;83.70;;;;;;5076496;28;20546;-79
2023/10/28 06:40:42;;;;;;;5.77;1.60;;;12.90;83.90;;;;;;5089411;28;20478;-79
2023/10/28 06:43:11;;;;;;;7.70;2.00;;;12.90;83.90;;;;;;5091865;28;20942;-80
2023/10/28 06:45:39;;;;;;;9.63;1.90;;;12.90;83.70;;;;;;5087146;28;20555;-81
2023/10/28 06:48:10;;;;;;;6.97;1.63;;;12.90;83.70;;;;;;5093600;28;20479;-80
2023/10/28 06:50:38;;;;;;;6.70;2.00;;;12.90;83.70;;;;;;5091240;28;20499;-78
2023/10/28 06:53:09;;;;;;;7.33;2.07;;;12.90;83.70;;;;;;5090894;28;20480;-80
2023/10/28 06:55:37;;;;;;;6.60;1.90;;;12.90;83.90;;;;;;5096903;28;20474;-79
2023/10/28 06:58:05;;;;;;;7.90;2.00;;;13.00;83.70;;;;;;5094249;28;20464;-80
2023/10/28 07:00:33;;;;;;;8.30;1.90;;;13.00;83.60;;;;;;5097532;28;20478;-80
2023/10/28 07:03:01;;;;;;;6.20;1.97;;;13.00;83.60;;;;;;5073922;28;21046;-79
2023/10/28 07:05:30;;;;;;;7.27;1.83;;;13.00;83.70;;;;;;5075230;28;20464;-79
2023/10/28 07:07:58;;;;;;;13.07;2.10;;;13.00;83.70;;;;;;5086968;28;21010;-82
2023/10/28 07:10:27;;;;;;;9.87;2.13;;;13.00;83.60;;;;;;5092677;28;20514;-82
2023/10/28 07:12:55;;;;;;;11.93;2.50;;;13.00;83.50;;;;;;5099481;28;20566;-79
2023/10/28 07:15:24;;;;;;;6.87;2.10;;;13.00;83.60;;;;;;5092539;28;20506;-79
2023/10/28 07:17:52;;;;;;;7.90;2.47;;;13.00;83.50;;;;;;5092278;28;20503;-80
2023/10/28 07:20:20;;;;;;;9.70;2.17;;;13.00;83.40;;;;;;5092801;28;20461;-82
2023/10/28 07:22:50;;;;;;;4.80;1.73;;;13.00;83.40;;;;;;5083416;28;20457;-79
2023/10/28 07:25:19;;;;;;;8.47;2.07;;;13.00;83.50;;;;;;5097847;28;20448;-79
2023/10/28 07:27:47;;;;;;;5.67;1.50;;;13.00;83.50;;;;;;5092505;28;20484;-80
2023/10/28 07:30:16;;;;;;;9.67;2.30;;;13.00;83.50;;;;;;5081065;28;20556;-82
2023/10/28 07:32:44;;;;;;;7.13;1.97;;;13.00;83.50;;;;;;5094959;28;20497;-79
2023/10/28 07:35:12;;;;;;;7.63;1.70;;;13.00;83.40;;;;;;5096239;28;20842;-80
2023/10/28 07:37:40;;;;;;;9.03;1.60;;;12.90;83.40;;;;;;5082754;28;20463;-79
2023/10/28 07:40:12;;;;;;;8.37;1.83;;;12.90;83.50;;;;;;5093169;28;20795;-81
2023/10/28 07:42:40;;;;;;;7.30;1.93;;;12.90;83.50;;;;;;5075329;28;21006;-81
2023/10/28 07:45:08;;;;;;;8.60;1.93;;;12.90;83.50;;;;;;5096455;28;20988;-79
2023/10/28 07:47:36;;;;;;;8.93;1.60;;;12.90;83.60;;;;;;5080224;28;21003;-79
2023/10/28 07:50:06;;;;;;;8.83;1.70;;;13.00;83.60;;;;;;5080631;28;20859;-79
2023/10/28 07:52:34;;;;;;;7.77;1.77;;;13.00;83.70;;;;;;5095976;28;20492;-81
2023/10/28 07:55:04;;;;;;;4.87;1.60;;;13.00;83.60;;;;;;5094960;28;20451;-79
2023/10/28 07:57:33;;;;;;;6.23;2.17;;;13.10;83.70;;;;;;5099231;28;20554;-80
2023/10/28 08:00:04;;;;;;;8.07;2.00;;;13.10;83.70;;;;;;5098338;28;20448;-79
2023/10/28 08:02:43;;;;;;;5.77;1.53;;;13.10;83.60;;;;;;5095268;28;20555;-82
2023/10/28 08:05:12;;;;;;;5.10;1.73;;;13.20;83.70;;;;;;5094235;28;20460;-79
2023/10/28 08:07:40;;;;;;;7.90;1.97;;;13.20;83.70;;;;;;5096837;28;20439;-81
2023/10/28 08:10:09;;;;;;;5.90;2.13;;;13.20;83.70;;;;;;5096724;28;20483;-81
2023/10/28 08:12:39;;;;;;;9.37;2.00;;;13.30;83.60;;;;;;5102628;28;20440;-81
2023/10/28 08:15:09;;;;;;;6.10;1.97;;;13.30;83.60;;;;;;5093844;28;20445;-79
2023/10/28 08:17:37;;;;;;;9.33;2.20;;;13.40;83.60;;;;;;5096190;28;20535;-80
2023/10/28 08:20:06;;;;;;;8.77;2.20;;;13.40;83.60;;;;;;5091137;28;20453;-82
2023/10/28 08:22:35;;;;;;;7.93;1.93;;;13.40;83.50;;;;;;5090220;28;20452;-81
2023/10/28 08:25:06;;;;;;;5.47;1.67;;;13.40;83.50;;;;;;5095853;28;20534;-81
2023/10/28 08:27:34;;;;;;;8.30;1.77;;;13.40;83.50;;;;;;5099228;28;20531;-78
2023/10/28 08:30:04;;;;;;;5.93;1.70;;;13.40;83.50;;;;;;5091573;28;20448;-81
2023/10/28 08:32:33;;;;;;;8.47;2.20;;;13.40;83.50;;;;;;5096651;28;20552;-79
2023/10/28 08:35:01;;;;;;;17.73;7.13;;;13.40;83.60;;;;;;5097946;28;20468;-80
2023/10/28 08:37:36;;;;;;;13.60;6.10;;;13.40;83.50;;;;;;5094453;28;20457;-81
2023/10/28 08:40:08;;;;;;;20.27;8.33;;;13.40;83.60;;;;;;5078799;28;20483;-82
2023/10/28 08:42:36;;;;;;;11.40;3.97;;;13.40;83.60;;;;;;5089719;28;20913;-79
2023/10/28 08:45:08;;;;;;;9.80;3.53;;;13.40;83.60;;;;;;5080513;28;20540;-80
2023/10/28 08:47:39;;;;;;;10.33;2.97;;;13.40;83.50;;;;;;5075823;28;20464;-78
2023/10/28 08:50:08;;;;;;;6.97;2.57;;;13.40;83.60;;;;;;5095549;28;20456;-81
2023/10/28 08:52:38;;;;;;;8.63;2.13;;;13.40;83.70;;;;;;5090475;28;20514;-78
2023/10/28 08:55:10;;;;;;;12.53;2.50;;;13.40;83.70;;;;;;5092630;28;20579;-81
2023/10/28 08:57:43;;;;;;;7.70;1.53;;;13.40;83.70;;;;;;5064174;28;20462;-80
2023/10/28 09:00:15;;;;;;;7.10;2.03;;;13.50;83.70;;;;;;5092164;28;20950;-81
2023/10/28 09:02:46;;;;;;;10.03;1.60;;;13.50;83.70;;;;;;5092964;28;21549;-78
2023/10/28 09:05:15;;;;;;;6.80;1.60;;;13.50;83.70;;;;;;5092398;28;20474;-78
2023/10/28 09:07:45;;;;;;;6.83;1.60;;;13.50;83.70;;;;;;5092351;28;20482;-79
2023/10/28 09:10:14;;;;;;;5.87;1.50;;;13.50;83.70;;;;;;5078135;28;20495;-81
2023/10/28 09:12:43;;;;;;;9.17;2.10;;;13.50;83.60;;;;;;5087913;28;20466;-78
2023/10/28 09:15:14;;;;;;;7.10;1.93;;;13.40;83.60;;;;;;5070084;28;21099;-80
2023/10/28 09:17:42;;;;;;;6.77;1.47;;;13.50;83.60;;;;;;5094670;28;20815;-80
2023/10/28 09:20:11;;;;;;;5.80;1.93;;;13.50;83.60;;;;;;5089809;28;20555;-78
2023/10/28 09:22:42;;;;;;;7.37;1.37;;;13.50;83.60;;;;;;5096067;28;20464;-78
2023/10/28 09:25:14;;;;;;;8.47;1.73;;;13.50;83.50;;;;;;5088436;28;20871;-79
2023/10/28 09:27:43;;;;;;;12.83;1.57;;;13.50;83.50;;;;;;5092354;28;20457;-78
2023/10/28 09:30:12;;;;;;;5.40;1.50;;;13.50;83.40;;;;;;5091897;28;20521;-78
2023/10/28 09:32:41;;;;;;;10.63;1.70;;;13.50;83.50;;;;;;5089679;28;20481;-79
2023/10/28 09:35:11;;;;;;;7.00;1.47;;;13.50;83.50;;;;;;5075625;28;20476;-80
2023/10/28 09:37:40;;;;;;;5.30;1.50;;;13.50;83.50;;;;;;5093234;28;20456;-80
2023/10/28 09:40:10;;;;;;;7.43;1.53;;;13.50;83.50;;;;;;5099079;28;20449;-79
2023/10/28 09:42:39;;;;;;;5.87;1.50;;;13.50;83.60;;;;;;5094729;28;20453;-78
2023/10/28 09:45:09;;;;;;;7.13;2.07;;;13.50;83.50;;;;;;5099530;28;20491;-81
2023/10/28 09:47:49;;;;;;;4.43;1.53;;;13.60;83.50;;;;;;5094851;28;20870;-81
2023/10/28 09:50:21;;;;;;;8.03;1.80;;;13.60;83.60;;;;;;5093098;28;20453;-80
2023/10/28 09:52:56;;;;;;;8.00;1.70;;;13.60;83.50;;;;;;5090321;28;20501;-78
2023/10/28 09:55:27;;;;;;;7.23;1.70;;;13.70;83.60;;;;;;5093621;28;20578;-81
2023/10/28 09:58:03;;;;;;;6.43;1.60;;;13.70;83.60;;;;;;5092540;28;20441;-79
2023/10/28 10:00:32;;;;;;;9.00;1.97;;;13.70;83.70;;;;;;5093746;28;20479;-78
2023/10/28 10:03:12;;;;;;;9.03;1.60;;;13.70;83.80;;;;;;5071218;28;20484;-79
2023/10/28 10:05:43;;;;;;;6.43;1.77;;;13.80;83.80;;;;;;5093872;28;20456;-79
2023/10/28 10:08:19;;;;;;;10.93;1.40;;;13.80;83.70;;;;;;5090891;28;20452;-80
2023/10/28 10:10:49;;;;;;;6.40;1.53;;;13.80;83.60;;;;;;5076475;28;20468;-79
2023/10/28 10:13:17;;;;;;;7.43;1.67;;;13.80;83.70;;;;;;5093096;28;20527;-79
2023/10/28 10:16:00;;;;;;;8.53;1.53;;;13.90;83.60;;;;;;5076642;28;20504;-79
2023/10/28 10:18:37;;;;;;;5.90;1.57;;;13.90;83.60;;;;;;5100196;28;21143;-80
2023/10/28 10:21:07;;;;;;;8.43;1.60;;;13.90;83.70;;;;;;5089984;28;20456;-80
2023/10/28 10:23:41;;;;;;;6.93;1.57;;;13.90;83.70;;;;;;5094001;28;20463;-79
2023/10/28 10:26:25;;;;;;;6.27;1.40;;;14.00;83.70;;;;;;5075905;28;20452;-81
2023/10/28 10:28:56;;;;;;;10.07;2.00;;;14.00;83.70;;;;;;5076473;28;20553;-80
2023/10/28 10:31:30;;;;;;;6.67;1.53;;;14.00;83.70;;;;;;5090572;28;20481;-80
2023/10/28 10:34:08;;;;;;;7.07;1.50;;;14.10;83.70;;;;;;5091115;28;20510;-80
2023/10/28 10:36:40;;;;;;;10.33;1.80;;;14.10;83.60;;;;;;5094985;28;20509;-79
2023/10/28 10:39:18;;;;;;;10.53;1.90;;;14.20;83.40;;;;;;5094443;28;20437;-79
2023/10/28 10:41:49;;;;;;;6.13;1.50;;;14.20;83.20;;;;;;5092459;28;20459;-79
2023/10/28 10:44:25;;;;;;;7.27;1.70;;;14.20;83.30;;;;;;5093812;28;20508;-81
2023/10/28 10:46:57;;;;;;;4.83;1.50;;;14.30;83.30;;;;;;5092245;28;20567;-78
2023/10/28 10:49:29;;;;;;;8.70;1.53;;;14.30;83.20;;;;;;5072256;28;20515;-79
2023/10/28 10:51:59;;;;;;;5.93;1.67;;;14.30;83.20;;;;;;5100519;28;20524;-78
2023/10/28 10:54:31;;;;;;;7.93;1.47;;;14.30;83.10;;;;;;5078383;28;20517;-78
2023/10/28 10:56:59;;;;;;;8.53;1.57;;;14.30;82.90;;;;;;5092489;28;20459;-80
2023/10/28 10:59:30;;;;;;;6.23;1.70;;;14.30;82.90;;;;;;5098784;28;20506;-80
2023/10/28 11:01:58;;;;;;;11.57;1.57;;;14.40;82.70;;;;;;5088964;28;20472;-78
2023/10/28 11:04:28;;;;;;;7.47;1.77;;;14.30;82.60;;;;;;5088784;28;20456;-79
2023/10/28 11:06:57;;;;;;;9.80;1.93;;;14.30;82.60;;;;;;5072683;28;20468;-78
2023/10/28 11:09:32;;;;;;;7.70;1.30;;;14.40;82.60;;;;;;5089719;28;20465;-78
2023/10/28 11:12:00;;;;;;;8.17;2.50;;;14.40;82.40;;;;;;5097611;28;20452;-78
2023/10/28 11:14:30;;;;;;;11.07;1.80;;;14.40;82.40;;;;;;5091803;28;20451;-78
2023/10/28 11:16:59;;;;;;;9.37;1.50;;;14.40;82.30;;;;;;5089804;28;20449;-79
2023/10/28 11:19:29;;;;;;;8.27;1.67;;;14.40;82.10;;;;;;5092363;28;20457;-79
2023/10/28 11:21:57;;;;;;;8.57;1.83;;;14.30;82.10;;;;;;5073631;28;20456;-80
2023/10/28 11:24:26;;;;;;;8.00;1.83;;;14.30;82.10;;;;;;5093489;28;20487;-78
2023/10/28 11:26:57;;;;;;;8.43;1.70;;;14.30;82.10;;;;;;5091500;28;20464;-79
2023/10/28 11:29:25;;;;;;;9.13;1.60;;;14.30;82.00;;;;;;5096034;28;20476;-80
2023/10/28 11:31:53;;;;;;;7.00;2.00;;;14.40;81.90;;;;;;5090954;28;20473;-81
2023/10/28 11:34:21;;;;;;;8.53;1.80;;;14.40;81.90;;;;;;5094552;28;20451;-78
2023/10/28 11:36:53;;;;;;;7.80;1.87;;;14.40;81.80;;;;;;5089323;28;20459;-80
2023/10/28 11:39:22;;;;;;;5.63;1.20;;;14.40;81.70;;;;;;5094890;28;20452;-80
2023/10/28 11:41:50;;;;;;;8.10;1.80;;;14.40;81.50;;;;;;5092299;28;20449;-80
2023/10/28 11:44:18;;;;;;;8.50;2.20;;;14.40;81.40;;;;;;5089075;28;20461;-81
2023/10/28 11:46:47;;;;;;;7.67;1.50;;;14.50;81.40;;;;;;5091666;28;20459;-78
2023/10/28 11:49:15;;;;;;;9.93;1.77;;;14.50;81.30;;;;;;5081673;28;20451;-79
2023/10/28 11:51:43;;;;;;;10.03;2.20;;;14.50;81.20;;;;;;5073682;28;20471;-78
2023/10/28 11:54:13;;;;;;;8.87;1.60;;;14.50;81.20;;;;;;5093701;28;20499;-80
2023/10/28 11:56:41;;;;;;;6.37;1.63;;;14.50;81.20;;;;;;5091687;28;21071;-79
2023/10/28 11:59:10;;;;;;;7.47;1.80;;;14.60;81.20;;;;;;5071365;28;20465;-80
2023/10/28 12:01:38;;;;;;;8.37;1.80;;;14.60;81.10;;;;;;5089148;28;20488;-80
2023/10/28 12:04:07;;;;;;;8.70;2.00;;;14.70;81.00;;;;;;5079332;28;20476;-80
2023/10/28 12:06:36;;;;;;;8.17;1.67;;;14.70;80.90;;;;;;5067592;28;20887;-79
2023/10/28 12:09:05;;;;;;;8.97;2.30;;;14.70;80.90;;;;;;5080674;28;20974;-81
2023/10/28 12:11:34;;;;;;;9.60;2.50;;;14.70;80.80;;;;;;5094554;28;20449;-78
2023/10/28 12:14:03;;;;;;;10.60;1.97;;;14.70;80.70;;;;;;5092482;28;20863;-78
2023/10/28 12:16:35;;;;;;;6.80;1.87;;;14.70;80.60;;;;;;5093515;28;20484;-80
2023/10/28 12:19:04;;;;;;;11.63;2.30;;;14.70;80.50;;;;;;5095522;28;20452;-79
2023/10/28 12:21:32;;;;;;;7.80;1.50;;;14.60;80.40;;;;;;5090746;28;20484;-78
2023/10/28 12:24:03;;;;;;;10.63;2.33;;;14.70;80.30;;;;;;5076432;28;20998;-81
2023/10/28 12:26:31;;;;;;;12.40;2.10;;;14.70;80.40;;;;;;5081780;28;20570;-80
2023/10/28 12:29:03;;;;;;;10.10;3.10;;;14.70;80.20;;;;;;5090029;28;20550;-79
2023/10/28 12:31:32;;;;;;;6.30;1.73;;;14.70;80.20;;;;;;5091886;28;20467;-79
2023/10/28 12:34:03;;;;;;;12.20;2.00;;;14.70;80.10;;;;;;5095703;28;20448;-80
2023/10/28 12:36:31;;;;;;;7.80;2.13;;;14.70;80.00;;;;;;5094627;28;20499;-81
2023/10/28 12:38:59;;;;;;;5.80;1.40;;;14.70;80.00;;;;;;5098666;28;20440;-79
2023/10/28 12:41:27;;;;;;;8.57;1.80;;;14.60;79.90;;;;;;5071845;28;20465;-81
2023/10/28 12:43:56;;;;;;;5.87;2.00;;;14.60;79.80;;;;;;5100143;28;20496;-78
2023/10/28 12:46:25;;;;;;;55.17;4.83;;;14.60;79.80;;;;;;5098302;28;20873;-80
2023/10/28 12:48:54;;;;;;;19.73;2.60;;;14.60;79.90;;;;;;5091084;28;20887;-80
2023/10/28 12:51:22;;;;;;;14.23;2.00;;;14.60;80.00;;;;;;5099952;28;20563;-80
2023/10/28 12:53:50;;;;;;;16.67;2.40;;;14.60;80.00;;;;;;5093912;28;20452;-80
2023/10/28 12:56:18;;;;;;;10.17;2.10;;;14.60;80.00;;;;;;5072391;28;20530;-81